Time;durP1;ratioP1;P1;durP2;ratioP2;P2;SDS_P1;SDS_P2;PMS_P1;PMS_P2;Temp;Humidity;BMP_temperature;BMP_pressure;BME280_temperature;BME280_humidity;BME280_pressure;Samples;Min_cycle;Max_cycle;Signal;HPM_P1;HPM_P2
2022/08/17 00:00:38;;;;;;;1.45;1.27;;;;;;;;;;5013110;28;20060;-75
2022/08/17 00:03:07;;;;;;;2.22;1.42;;;;;;;;;;5013733;28;20018;-74
2022/08/17 00:05:40;;;;;;;1.85;1.40;;;;;;;;;;5014619;28;20037;-75
2022/08/17 00:08:07;;;;;;;1.75;1.25;;;;;;;;;;4998056;28;20421;-74
2022/08/17 00:10:34;;;;;;;2.65;2.15;;;;;;;;;;5013042;28;20034;-74
2022/08/17 00:13:04;;;;;;;2.28;1.40;;;;;;;;;;5010925;28;20076;-74
2022/08/17 00:15:29;;;;;;;4.00;2.05;;;;;;;;;;5012099;28;20053;-74
2022/08/17 00:17:57;;;;;;;2.40;1.75;;;;;;;;;;5013495;28;20484;-75
2022/08/17 00:20:24;;;;;;;1.60;1.50;;;;;;;;;;5012882;28;20018;-75
2022/08/17 00:23:01;;;;;;;2.00;1.35;;;;;;;;;;5009437;28;20018;-74
2022/08/17 00:25:26;;;;;;;1.85;1.70;;;;;;;;;;5013499;28;20061;-74
2022/08/17 00:27:54;;;;;;;2.03;1.50;;;;;;;;;;5014051;28;20029;-75
2022/08/17 00:30:22;;;;;;;1.80;1.60;;;;;;;;;;5012575;28;20108;-74
2022/08/17 00:32:48;;;;;;;1.23;1.13;;;;;;;;;;5013062;28;20125;-74
2022/08/17 00:35:16;;;;;;;2.28;1.33;;;;;;;;;;5014970;28;20037;-74
2022/08/17 00:37:41;;;;;;;2.53;1.75;;;;;;;;;;5017605;28;20433;-75
2022/08/17 00:40:09;;;;;;;1.98;1.50;;;;;;;;;;5016182;28;20034;-75
2022/08/17 00:42:36;;;;;;;4.05;1.80;;;;;;;;;;5016260;28;20103;-75
2022/08/17 00:45:03;;;;;;;1.83;1.42;;;;;;;;;;5016994;28;20037;-74
2022/08/17 00:47:29;;;;;;;3.17;2.47;;;;;;;;;;5016396;28;20032;-75
2022/08/17 00:49:56;;;;;;;2.03;1.45;;;;;;;;;;5017566;28;20437;-74
2022/08/17 00:52:27;;;;;;;2.33;1.85;;;;;;;;;;5016670;28;20033;-74
2022/08/17 00:54:53;;;;;;;2.20;1.85;;;;;;;;;;5015910;28;20033;-74
2022/08/17 00:57:22;;;;;;;3.00;1.85;;;;;;;;;;5015955;28;20101;-74
2022/08/17 00:59:53;;;;;;;1.65;1.55;;;;;;;;;;5015574;28;20040;-74
2022/08/17 01:02:19;;;;;;;2.00;1.75;;;;;;;;;;5015780;28;20022;-74
2022/08/17 01:04:47;;;;;;;1.63;1.17;;;;;;;;;;5015737;28;20457;-75
2022/08/17 01:07:15;;;;;;;2.72;1.83;;;;;;;;;;5015894;28;20026;-73
2022/08/17 01:09:41;;;;;;;3.22;1.75;;;;;;;;;;5013576;28;20046;-73
2022/08/17 01:12:13;;;;;;;2.72;2.08;;;;;;;;;;5014989;28;20467;-73
2022/08/17 01:14:38;;;;;;;4.40;2.25;;;;;;;;;;5017178;28;20030;-74
2022/08/17 01:17:06;;;;;;;2.40;1.77;;;;;;;;;;5015198;28;20353;-74
2022/08/17 01:19:34;;;;;;;4.40;1.98;;;;;;;;;;5016536;28;20117;-74
2022/08/17 01:22:25;;;;;;;7.68;2.05;;;;;;;;;;5017074;28;20353;-74
2022/08/17 01:25:02;;;;;;;2.97;2.22;;;;;;;;;;5016456;28;20030;-74
2022/08/17 01:27:27;;;;;;;7.20;3.10;;;;;;;;;;5015776;28;20437;-74
2022/08/17 01:30:05;;;;;;;2.83;2.35;;;;;;;;;;5017051;28;20048;-74
2022/08/17 01:32:35;;;;;;;2.17;1.80;;;;;;;;;;5015611;28;20354;-74
2022/08/17 01:35:01;;;;;;;6.38;2.45;;;;;;;;;;5016084;28;20025;-74
2022/08/17 01:37:33;;;;;;;3.35;2.08;;;;;;;;;;5014546;28;20039;-74
2022/08/17 01:40:09;;;;;;;1.75;1.60;;;;;;;;;;5015844;28;20025;-75
2022/08/17 01:42:43;;;;;;;3.85;2.65;;;;;;;;;;5016990;28;20061;-74
2022/08/17 01:45:12;;;;;;;3.80;2.10;;;;;;;;;;5015489;28;20124;-74
2022/08/17 01:47:38;;;;;;;2.70;1.80;;;;;;;;;;5014908;28;20041;-74
2022/08/17 01:50:07;;;;;;;4.78;2.65;;;;;;;;;;5016804;28;20029;-74
2022/08/17 01:52:33;;;;;;;2.72;2.40;;;;;;;;;;5016823;28;20033;-74
2022/08/17 01:54:58;;;;;;;6.40;1.60;;;;;;;;;;4998985;28;20030;-74
2022/08/17 01:57:23;;;;;;;3.17;2.42;;;;;;;;;;5015963;28;20030;-74
2022/08/17 01:59:54;;;;;;;2.20;1.85;;;;;;;;;;5016764;28;20025;-74
2022/08/17 02:02:22;;;;;;;4.07;2.25;;;;;;;;;;5009750;28;20021;-73
2022/08/17 02:04:47;;;;;;;5.55;1.80;;;;;;;;;;5002095;28;20030;-72
2022/08/17 02:07:12;;;;;;;3.03;2.30;;;;;;;;;;5007369;28;20029;-73
2022/08/17 02:09:40;;;;;;;5.45;3.40;;;;;;;;;;5004741;28;20030;-74
2022/08/17 02:12:06;;;;;;;5.07;2.05;;;;;;;;;;5007525;28;20030;-74
2022/08/17 02:14:31;;;;;;;3.15;2.00;;;;;;;;;;5014248;28;20025;-74
2022/08/17 02:16:59;;;;;;;3.50;2.13;;;;;;;;;;5015307;28;20040;-73
2022/08/17 02:19:24;;;;;;;3.42;1.98;;;;;;;;;;5016402;28;20037;-74
2022/08/17 02:21:51;;;;;;;3.05;2.00;;;;;;;;;;5016403;28;20030;-74
2022/08/17 02:24:25;;;;;;;3.58;2.45;;;;;;;;;;5015309;28;20026;-74
2022/08/17 02:26:53;;;;;;;2.35;2.00;;;;;;;;;;5029471;28;20136;-74
2022/08/17 02:29:18;;;;;;;2.63;1.90;;;;;;;;;;4999321;28;20056;-73
2022/08/17 02:31:46;;;;;;;3.28;2.47;;;;;;;;;;5016076;28;20033;-74
2022/08/17 02:34:12;;;;;;;3.30;2.38;;;;;;;;;;5016208;28;20030;-74
2022/08/17 02:36:38;;;;;;;2.45;1.88;;;;;;;;;;5013711;28;20029;-74
2022/08/17 02:39:05;;;;;;;3.60;2.13;;;;;;;;;;5016011;28;20433;-74
2022/08/17 02:41:31;;;;;;;3.22;1.92;;;;;;;;;;5015023;28;20045;-75
2022/08/17 02:43:56;;;;;;;3.30;2.28;;;;;;;;;;5015841;28;20393;-74
2022/08/17 02:46:21;;;;;;;2.38;2.10;;;;;;;;;;5014233;28;20117;-74
2022/08/17 02:48:47;;;;;;;3.60;2.92;;;;;;;;;;5015328;28;20117;-74
2022/08/17 02:51:13;;;;;;;3.15;2.40;;;;;;;;;;5015641;28;20025;-74
2022/08/17 02:53:38;;;;;;;3.13;2.83;;;;;;;;;;5015874;28;20033;-74
2022/08/17 02:56:06;;;;;;;5.25;2.15;;;;;;;;;;5013536;28;20710;-74
2022/08/17 02:58:34;;;;;;;4.90;3.28;;;;;;;;;;5014722;28;20461;-74
2022/08/17 03:00:59;;;;;;;3.33;2.70;;;;;;;;;;4998109;28;20029;-74
2022/08/17 03:03:27;;;;;;;6.72;2.80;;;;;;;;;;5014840;28;20445;-74
2022/08/17 03:05:52;;;;;;;6.22;2.97;;;;;;;;;;5013713;28;20377;-74
2022/08/17 03:08:18;;;;;;;4.13;2.85;;;;;;;;;;5014484;28;20026;-73
2022/08/17 03:10:44;;;;;;;4.25;3.38;;;;;;;;;;5014535;28;20072;-74
2022/08/17 03:13:11;;;;;;;4.28;2.88;;;;;;;;;;5015344;28;20021;-74
2022/08/17 03:15:40;;;;;;;3.88;3.13;;;;;;;;;;5014440;28;20022;-73
2022/08/17 03:18:05;;;;;;;4.07;2.55;;;;;;;;;;5014954;28;20038;-74
2022/08/17 03:20:32;;;;;;;3.63;3.10;;;;;;;;;;4998199;28;20418;-74
2022/08/17 03:22:58;;;;;;;3.38;2.35;;;;;;;;;;5014402;28;20021;-73
2022/08/17 03:25:27;;;;;;;2.92;2.53;;;;;;;;;;5013599;28;20042;-74
2022/08/17 03:27:53;;;;;;;2.83;2.42;;;;;;;;;;5014694;28;20033;-74
2022/08/17 03:30:18;;;;;;;3.25;2.70;;;;;;;;;;5015269;28;20041;-73
2022/08/17 03:32:49;;;;;;;4.70;3.20;;;;;;;;;;5014236;28;20033;-74
2022/08/17 03:35:17;;;;;;;3.97;2.40;;;;;;;;;;5013484;28;20104;-74
2022/08/17 03:37:42;;;;;;;2.78;2.10;;;;;;;;;;5014397;28;20064;-75
2022/08/17 03:40:10;;;;;;;3.42;2.35;;;;;;;;;;5014945;28;20025;-74
2022/08/17 03:42:38;;;;;;;6.57;3.90;;;;;;;;;;5015097;28;20084;-75
2022/08/17 03:45:05;;;;;;;3.83;2.38;;;;;;;;;;5013192;28;20028;-74
2022/08/17 03:58:37;;;;;;;4.38;2.28;;;;;;;;;;5014969;28;20052;-74
2022/08/17 04:01:04;;;;;;;2.70;2.00;;;;;;;;;;5009186;28;20025;-75
2022/08/17 04:03:29;;;;;;;6.28;2.35;;;;;;;;;;5005607;28;20042;-74
2022/08/17 04:05:57;;;;;;;3.70;1.83;;;;;;;;;;5011474;28;20034;-75
2022/08/17 04:08:22;;;;;;;4.05;2.42;;;;;;;;;;5012603;28;20042;-75
2022/08/17 04:10:48;;;;;;;4.40;2.70;;;;;;;;;;5012650;28;20080;-74
2022/08/17 04:13:16;;;;;;;3.00;1.98;;;;;;;;;;5014019;28;20436;-74
2022/08/17 04:15:41;;;;;;;2.33;2.13;;;;;;;;;;5014042;28;20026;-73
2022/08/17 04:18:09;;;;;;;3.92;3.10;;;;;;;;;;5013903;28;20455;-74
2022/08/17 04:20:34;;;;;;;7.65;1.95;;;;;;;;;;5014373;28;20112;-73
2022/08/17 04:23:09;;;;;;;2.28;1.70;;;;;;;;;;5014464;28;20049;-74
2022/08/17 04:25:39;;;;;;;3.42;2.45;;;;;;;;;;5012615;28;20080;-73
2022/08/17 04:28:05;;;;;;;2.28;2.08;;;;;;;;;;5011783;28;20026;-74
2022/08/17 04:30:33;;;;;;;3.17;2.10;;;;;;;;;;5014280;28;20037;-74
2022/08/17 04:33:04;;;;;;;3.72;2.53;;;;;;;;;;5014318;28;20022;-74
2022/08/17 04:35:32;;;;;;;3.53;2.55;;;;;;;;;;5013443;28;20038;-74
2022/08/17 04:37:58;;;;;;;4.18;3.00;;;;;;;;;;5012359;28;20030;-74
2022/08/17 04:43:17;;;;;;;4.15;2.67;;;;;;;;;;5013535;28;20504;-74
2022/08/17 04:45:46;;;;;;;3.80;2.83;;;;;;;;;;5011965;28;20084;-73
2022/08/17 04:48:14;;;;;;;3.78;2.85;;;;;;;;;;4997050;28;20065;-73
2022/08/17 04:50:43;;;;;;;2.78;2.42;;;;;;;;;;5014176;28;20062;-75
2022/08/17 04:53:08;;;;;;;3.67;3.13;;;;;;;;;;5014086;28;20032;-74
2022/08/17 04:55:33;;;;;;;2.03;1.92;;;;;;;;;;5013211;28;20104;-74
2022/08/17 04:57:59;;;;;;;3.60;1.85;;;;;;;;;;5014064;28;20026;-74
2022/08/17 05:00:26;;;;;;;3.45;2.13;;;;;;;;;;5014107;28;20046;-74
2022/08/17 05:02:53;;;;;;;2.85;1.95;;;;;;;;;;5014112;28;20060;-75
2022/08/17 05:05:25;;;;;;;3.10;2.20;;;;;;;;;;5013680;28;20101;-75
2022/08/17 05:07:53;;;;;;;2.20;2.00;;;;;;;;;;4994444;28;20018;-74
2022/08/17 05:10:22;;;;;;;3.35;1.75;;;;;;;;;;5010580;28;20034;-75
2022/08/17 05:12:59;;;;;;;4.22;2.28;;;;;;;;;;5012984;28;20041;-74
2022/08/17 05:15:25;;;;;;;2.92;2.25;;;;;;;;;;5013590;28;20017;-74
2022/08/17 05:17:51;;;;;;;4.43;1.70;;;;;;;;;;5012937;28;20112;-79
2022/08/17 05:20:16;;;;;;;2.88;1.60;;;;;;;;;;5013927;28;20156;-82
2022/08/17 05:22:49;;;;;;;2.33;1.63;;;;;;;;;;5016069;28;20096;-82
2022/08/17 05:25:21;;;;;;;6.28;2.75;;;;;;;;;;5016901;28;20025;-81
2022/08/17 05:27:46;;;;;;;3.30;2.40;;;;;;;;;;5015653;28;20034;-81
2022/08/17 05:30:13;;;;;;;6.85;2.45;;;;;;;;;;5017490;28;20030;-82
2022/08/17 05:32:40;;;;;;;3.72;2.53;;;;;;;;;;5016491;28;20034;-81
2022/08/17 05:35:06;;;;;;;5.57;2.53;;;;;;;;;;5016811;28;20030;-83
2022/08/17 05:37:32;;;;;;;2.72;1.65;;;;;;;;;;5017739;28;20040;-81
2022/08/17 05:39:59;;;;;;;3.55;2.13;;;;;;;;;;5014987;28;20053;-82
2022/08/17 05:42:25;;;;;;;2.15;1.95;;;;;;;;;;5015224;28;20029;-82
2022/08/17 05:44:52;;;;;;;2.42;1.67;;;;;;;;;;5017499;28;20166;-80
2022/08/17 05:47:18;;;;;;;1.92;1.63;;;;;;;;;;5016001;28;20380;-81
2022/08/17 05:49:43;;;;;;;4.18;2.03;;;;;;;;;;5015564;28;20032;-82
2022/08/17 05:52:17;;;;;;;3.58;2.10;;;;;;;;;;5017800;28;20041;-81
2022/08/17 05:55:10;;;;;;;8.48;1.95;;;;;;;;;;5015641;28;20060;-82
2022/08/17 05:58:16;;;;;;;4.75;2.63;;;;;;;;;;5017143;28;20456;-83
2022/08/17 06:01:10;;;;;;;1.85;1.35;;;;;;;;;;5001257;28;20026;-87
2022/08/17 06:03:46;;;;;;;2.53;2.00;;;;;;;;;;4963786;28;20035;-82
2022/08/17 06:06:23;;;;;;;3.53;2.80;;;;;;;;;;5016354;28;20045;-86
2022/08/17 06:08:57;;;;;;;4.70;1.83;;;;;;;;;;5016024;28;20026;-83
2022/08/17 06:11:42;;;;;;;3.53;3.00;;;;;;;;;;5014802;28;20030;-82
2022/08/17 06:14:16;;;;;;;3.05;2.20;;;;;;;;;;5016764;28;20433;-82
2022/08/17 06:16:49;;;;;;;4.13;2.05;;;;;;;;;;5016189;28;20034;-83
2022/08/17 06:19:23;;;;;;;3.33;1.80;;;;;;;;;;5015728;28;20030;-82
2022/08/17 06:21:51;;;;;;;2.67;1.33;;;;;;;;;;4999385;28;20429;-86
2022/08/17 06:24:28;;;;;;;2.60;2.10;;;;;;;;;;5016002;28;20079;-83
2022/08/17 06:27:13;;;;;;;1.55;1.42;;;;;;;;;;5011845;28;20586;-81
2022/08/17 06:29:47;;;;;;;1.80;1.65;;;;;;;;;;4980228;28;20385;-85
2022/08/17 06:32:16;;;;;;;3.60;2.17;;;;;;;;;;4996882;28;20074;-82
2022/08/17 06:34:42;;;;;;;3.83;2.63;;;;;;;;;;5013758;28;20069;-83
2022/08/17 06:37:30;;;;;;;3.33;2.42;;;;;;;;;;5014707;28;20030;-83
2022/08/17 06:40:02;;;;;;;13.52;1.83;;;;;;;;;;5016116;28;20018;-82
2022/08/17 06:42:52;;;;;;;3.40;2.17;;;;;;;;;;5016328;28;20029;-83
2022/08/17 06:45:30;;;;;;;7.53;3.13;;;;;;;;;;5015696;28;20030;-82
2022/08/17 06:48:00;;;;;;;2.78;1.92;;;;;;;;;;5013536;28;20061;-83
2022/08/17 06:50:28;;;;;;;3.47;1.90;;;;;;;;;;4998576;28;20033;-83
2022/08/17 06:53:22;;;;;;;5.95;2.40;;;;;;;;;;5015776;28;20033;-81
2022/08/17 06:56:09;;;;;;;4.35;2.50;;;;;;;;;;5006734;28;20558;-83
2022/08/17 06:58:40;;;;;;;2.50;2.00;;;;;;;;;;4997500;28;20667;-82
2022/08/17 07:01:19;;;;;;;2.60;1.55;;;;;;;;;;5013952;28;20062;-80
2022/08/17 07:03:48;;;;;;;3.50;2.63;;;;;;;;;;5014498;28;20048;-81
2022/08/17 07:06:20;;;;;;;1.83;1.65;;;;;;;;;;5014885;28;20026;-82
2022/08/17 07:08:51;;;;;;;3.42;1.77;;;;;;;;;;5015116;28;20098;-83
2022/08/17 07:11:32;;;;;;;5.73;2.20;;;;;;;;;;5013815;28;20417;-82
2022/08/17 07:14:15;;;;;;;3.47;2.20;;;;;;;;;;4995526;28;20763;-83
2022/08/17 07:16:45;;;;;;;8.68;3.47;;;;;;;;;;5005961;28;20049;-83
2022/08/17 07:19:12;;;;;;;4.25;2.15;;;;;;;;;;5013933;28;20026;-83
2022/08/17 07:21:40;;;;;;;1.77;1.50;;;;;;;;;;5014845;28;20026;-81
2022/08/17 07:24:24;;;;;;;2.67;1.75;;;;;;;;;;5014812;28;20049;-83
2022/08/17 07:27:08;;;;;;;4.50;2.13;;;;;;;;;;5014137;28;20113;-84
2022/08/17 07:29:41;;;;;;;11.70;2.13;;;;;;;;;;5013346;28;20032;-83
2022/08/17 07:32:07;;;;;;;1.20;0.75;;;;;;;;;;5014413;28;20424;-82
2022/08/17 07:35:22;;;;;;;2.13;0.85;;;;;;;;;;5014597;28;20125;-82
2022/08/17 07:38:21;;;;;;;0.98;0.85;;;;;;;;;;5005290;28;20038;-84
2022/08/17 07:41:03;;;;;;;1.95;1.10;;;;;;;;;;5014970;28;20045;-82
2022/08/17 07:43:40;;;;;;;0.80;0.80;;;;;;;;;;5015055;28;20491;-82
2022/08/17 07:49:30;;;;;;;2.97;1.73;;;;;;;;;;5009116;28;20087;-83
2022/08/17 07:52:31;;;;;;;2.30;1.77;;;;;;;;;;5012387;28;20080;-82
2022/08/17 07:54:57;;;;;;;1.90;1.13;;;;;;;;;;5013761;28;20026;-85
2022/08/17 07:57:31;;;;;;;1.25;1.13;;;;;;;;;;5012784;28;20351;-83
2022/08/17 07:59:57;;;;;;;5.10;2.42;;;;;;;;;;4995627;28;20026;-82
2022/08/17 08:02:26;;;;;;;3.60;2.13;;;;;;;;;;5014875;28;20337;-79
2022/08/17 08:04:59;;;;;;;9.98;2.58;;;;;;;;;;5013997;28;20533;-83
2022/08/17 08:07:33;;;;;;;6.28;2.25;;;;;;;;;;5011556;28;20026;-83
2022/08/17 08:09:58;;;;;;;2.05;1.27;;;;;;;;;;5009885;28;20465;-81
2022/08/17 08:12:43;;;;;;;1.45;1.27;;;;;;;;;;5014674;28;20105;-82
2022/08/17 08:15:29;;;;;;;1.27;0.85;;;;;;;;;;5013300;28;20029;-83
2022/08/17 08:17:56;;;;;;;1.50;1.30;;;;;;;;;;5011495;28;20037;-82
2022/08/17 08:20:39;;;;;;;1.45;1.20;;;;;;;;;;5012680;28;20096;-80
2022/08/17 08:23:10;;;;;;;1.33;1.00;;;;;;;;;;5012596;28;20097;-81
2022/08/17 08:25:51;;;;;;;1.52;1.42;;;;;;;;;;5014546;28;20043;-82
2022/08/17 08:28:19;;;;;;;1.40;1.20;;;;;;;;;;5012652;28;20096;-82
2022/08/17 08:30:51;;;;;;;2.70;1.83;;;;;;;;;;5012314;28;20045;-81
2022/08/17 08:33:38;;;;;;;1.67;1.20;;;;;;;;;;5010230;28;20056;-83
2022/08/17 08:36:09;;;;;;;1.77;1.30;;;;;;;;;;5011040;28;20080;-85
2022/08/17 08:38:59;;;;;;;1.63;1.23;;;;;;;;;;5014936;28;20033;-83
2022/08/17 08:42:12;;;;;;;1.55;1.35;;;;;;;;;;5014179;28;20452;-83
2022/08/17 08:44:58;;;;;;;1.83;1.38;;;;;;;;;;5013861;28;20172;-84
2022/08/17 08:47:52;;;;;;;1.30;1.15;;;;;;;;;;5014341;28;20022;-84
2022/08/17 08:50:41;;;;;;;1.95;1.75;;;;;;;;;;5014022;28;20025;-86
2022/08/17 08:53:44;;;;;;;1.83;1.17;;;;;;;;;;5015966;28;20113;-82
2022/08/17 08:56:18;;;;;;;1.98;1.48;;;;;;;;;;5012349;28;20018;-82
2022/08/17 08:59:08;;;;;;;2.95;1.75;;;;;;;;;;5017203;28;20034;-83
2022/08/17 09:01:42;;;;;;;1.85;1.35;;;;;;;;;;5017872;28;20041;-83
2022/08/17 09:04:26;;;;;;;2.78;1.73;;;;;;;;;;5014968;28;20058;-83
2022/08/17 09:07:04;;;;;;;2.10;1.33;;;;;;;;;;5018329;28;20100;-82
2022/08/17 09:09:38;;;;;;;2.40;1.45;;;;;;;;;;4999788;28;20022;-84
2022/08/17 09:12:35;;;;;;;1.65;1.52;;;;;;;;;;5016220;28;20101;-82
2022/08/17 09:15:19;;;;;;;1.70;1.38;;;;;;;;;;5014183;28;20485;-83
2022/08/17 09:17:56;;;;;;;1.83;1.33;;;;;;;;;;5017223;28;20160;-81
2022/08/17 09:20:45;;;;;;;2.30;1.67;;;;;;;;;;5018161;28;20022;-81
2022/08/17 09:23:32;;;;;;;2.00;1.50;;;;;;;;;;5012202;28;20026;-82
2022/08/17 09:26:04;;;;;;;1.55;1.25;;;;;;;;;;5007817;28;20036;-84
2022/08/17 09:28:39;;;;;;;1.73;1.30;;;;;;;;;;5012817;28;20072;-83
2022/08/17 09:31:14;;;;;;;2.25;1.50;;;;;;;;;;5007980;28;20426;-83
2022/08/17 09:33:43;;;;;;;1.92;1.42;;;;;;;;;;5003895;28;20053;-82
2022/08/17 09:36:31;;;;;;;3.92;1.55;;;;;;;;;;5011483;28;20457;-84
2022/08/17 09:39:16;;;;;;;2.80;1.33;;;;;;;;;;5002893;28;20070;-83
2022/08/17 09:41:47;;;;;;;1.60;1.50;;;;;;;;;;5009283;28;20040;-79
2022/08/17 09:44:21;;;;;;;2.03;1.40;;;;;;;;;;5011311;28;20377;-80
2022/08/17 09:46:54;;;;;;;2.38;1.40;;;;;;;;;;5015749;28;20040;-81
2022/08/17 09:49:32;;;;;;;2.75;1.75;;;;;;;;;;5018492;28;20029;-86
2022/08/17 09:52:23;;;;;;;1.75;1.42;;;;;;;;;;5015409;28;20475;-87
2022/08/17 09:54:50;;;;;;;2.72;1.77;;;;;;;;;;5016615;28;20092;-85
2022/08/17 09:57:22;;;;;;;2.17;1.98;;;;;;;;;;4990293;28;20025;-80
2022/08/17 10:02:58;;;;;;;2.58;1.88;;;;;;;;;;5008274;28;20033;-79
2022/08/17 10:05:33;;;;;;;2.05;1.85;;;;;;;;;;5012073;28;20038;-79
2022/08/17 10:08:24;;;;;;;2.20;1.05;;;;;;;;;;5011009;28;20069;-82
2022/08/17 10:11:11;;;;;;;2.13;1.70;;;;;;;;;;5013625;28;20033;-82
2022/08/17 10:14:06;;;;;;;2.78;1.95;;;;;;;;;;5013904;28;20030;-83
2022/08/17 10:16:57;;;;;;;5.30;1.45;;;;;;;;;;5006315;28;20411;-82
2022/08/17 10:19:35;;;;;;;1.85;1.50;;;;;;;;;;5010055;28;20121;-80
2022/08/17 10:27:47;;;;;;;4.70;3.15;;;;;;;;;;5004886;28;20045;-78
2022/08/17 10:30:16;;;;;;;2.95;2.42;;;;;;;;;;5010388;28;20117;-80
2022/08/17 10:32:55;;;;;;;2.78;2.35;;;;;;;;;;5012038;28;20033;-81
2022/08/17 10:36:06;;;;;;;4.88;2.88;;;;;;;;;;4989579;28;20027;-78
2022/08/17 10:38:44;;;;;;;5.40;2.22;;;;;;;;;;5005200;28;20030;-81
2022/08/17 10:41:49;;;;;;;2.75;2.15;;;;;;;;;;5011069;28;20369;-80
2022/08/17 10:44:29;;;;;;;5.78;1.92;;;;;;;;;;4956800;28;20030;-80
2022/08/17 10:47:11;;;;;;;2.05;1.85;;;;;;;;;;4969512;28;20472;-79
2022/08/17 10:49:46;;;;;;;2.13;1.85;;;;;;;;;;4956708;28;20078;-79
2022/08/17 10:52:27;;;;;;;3.90;2.65;;;;;;;;;;4955734;28;20035;-80
2022/08/17 10:54:58;;;;;;;3.95;2.83;;;;;;;;;;4955930;28;20039;-80
2022/08/17 10:57:26;;;;;;;3.33;2.53;;;;;;;;;;4971312;28;20035;-86
2022/08/17 11:00:01;;;;;;;3.50;2.17;;;;;;;;;;4970684;28;20038;-79
2022/08/17 11:02:53;;;;;;;4.72;2.67;;;;;;;;;;4972284;28;20050;-81
2022/08/17 11:05:18;;;;;;;6.78;2.17;;;;;;;;;;4973684;28;20605;-79
2022/08/17 11:08:20;;;;;;;5.15;2.58;;;;;;;;;;4974286;28;20043;-78
2022/08/17 11:10:45;;;;;;;4.03;2.23;;;;;;;;;;4974222;28;20045;-82
2022/08/17 11:13:23;;;;;;;6.80;2.80;;;;;;;;;;4974307;28;20022;-81
2022/08/17 11:16:34;;;;;;;4.15;2.85;;;;;;;;;;5003585;28;20048;-79
2022/08/17 11:19:21;;;;;;;5.10;3.03;;;;;;;;;;5012794;28;20025;-79
2022/08/17 11:22:14;;;;;;;3.85;3.03;;;;;;;;;;5008703;28;20022;-79
2022/08/17 11:24:46;;;;;;;4.78;3.20;;;;;;;;;;5009420;28;20697;-78
2022/08/17 11:27:41;;;;;;;6.93;3.50;;;;;;;;;;4997067;28;20132;-75
2022/08/17 11:30:13;;;;;;;3.88;3.45;;;;;;;;;;5004497;28;20034;-81
2022/08/17 11:32:42;;;;;;;;;;;;;;;;;;5009172;28;20034;-79
2022/08/17 11:35:19;;;;;;;4.35;3.30;;;;;;;;;;5005718;28;20276;-77
2022/08/17 11:37:53;;;;;;;3.92;2.90;;;;;;;;;;5009160;28;20469;-80
2022/08/17 11:40:34;;;;;;;5.13;3.67;;;;;;;;;;5013705;28;20453;-79
2022/08/17 11:43:06;;;;;;;5.47;2.88;;;;;;;;;;5011374;28;20429;-82
2022/08/17 11:45:43;;;;;;;7.40;3.90;;;;;;;;;;5008876;28;20034;-81
2022/08/17 11:53:51;;;;;;;4.53;3.20;;;;;;;;;;5004024;28;20049;-80
2022/08/17 11:56:42;;;;;;;5.40;3.92;;;;;;;;;;4999035;28;20030;-78
2022/08/17 11:59:35;;;;;;;5.13;3.72;;;;;;;;;;5002848;28;20057;-79
2022/08/17 12:02:33;;;;;;;9.27;4.40;;;;;;;;;;5006681;28;20418;-79
2022/08/17 12:05:08;;;;;;;5.38;3.47;;;;;;;;;;5010909;28;20109;-79
2022/08/17 12:07:42;;;;;;;4.80;3.25;;;;;;;;;;5011575;28;20045;-80
2022/08/17 12:10:11;;;;;;;11.93;4.82;;;;;;;;;;5007644;28;20044;-81
2022/08/17 12:12:40;;;;;;;7.38;4.43;;;;;;;;;;5008476;28;20037;-79
2022/08/17 12:15:06;;;;;;;6.75;4.35;;;;;;;;;;4992873;28;20029;-77
2022/08/17 12:17:34;;;;;;;5.72;3.78;;;;;;;;;;5010165;28;20034;-77
2022/08/17 12:20:17;;;;;;;9.57;5.55;;;;;;;;;;4994688;28;20058;-80
2022/08/17 12:23:06;;;;;;;5.72;3.80;;;;;;;;;;5001141;28;20021;-80
2022/08/17 12:25:51;;;;;;;8.25;4.10;;;;;;;;;;5010801;28;20049;-80
2022/08/17 12:28:21;;;;;;;9.57;4.90;;;;;;;;;;4994536;28;20519;-79
2022/08/17 12:30:48;;;;;;;8.38;4.63;;;;;;;;;;4979479;28;20457;-79
2022/08/17 12:33:14;;;;;;;11.90;3.92;;;;;;;;;;5016058;28;20044;-79
2022/08/17 12:35:40;;;;;;;4.38;3.45;;;;;;;;;;5016521;28;20025;-80
2022/08/17 12:38:09;;;;;;;6.57;4.63;;;;;;;;;;5016572;28;20036;-80
2022/08/17 12:40:34;;;;;;;9.85;3.40;;;;;;;;;;5016585;28;20030;-79
2022/08/17 12:43:06;;;;;;;7.35;4.90;;;;;;;;;;5016487;28;20112;-80
2022/08/17 12:45:32;;;;;;;;;;;;;;;;;;5000197;28;20361;-79
2022/08/17 12:48:06;;;;;;;8.35;5.03;;;;;;;;;;5016301;28;20395;-78
2022/08/17 12:50:33;;;;;;;7.35;5.10;;;;;;;;;;5016363;28;20052;-77
2022/08/17 12:52:59;;;;;;;6.40;4.65;;;;;;;;;;4999922;28;20465;-79
2022/08/17 12:55:27;;;;;;;6.60;5.53;;;;;;;;;;4999909;28;20038;-81
2022/08/17 12:57:58;;;;;;;7.18;5.43;;;;;;;;;;5016137;28;20469;-80
2022/08/17 13:00:32;;;;;;;6.18;4.78;;;;;;;;;;5000104;28;20040;-80
2022/08/17 13:02:57;;;;;;;6.53;4.35;;;;;;;;;;5030468;28;20025;-78
2022/08/17 13:05:35;;;;;;;9.07;4.97;;;;;;;;;;5037965;28;20039;-79
2022/08/17 13:08:04;;;;;;;7.45;4.93;;;;;;;;;;5037777;28;20021;-79
2022/08/17 13:10:33;;;;;;;7.50;5.35;;;;;;;;;;5036976;28;20382;-77
2022/08/17 13:13:05;;;;;;;7.95;5.28;;;;;;;;;;5038022;28;20021;-78
2022/08/17 13:15:37;;;;;;;14.35;6.75;;;;;;;;;;5028237;28;20037;-80
2022/08/17 13:18:39;;;;;;;6.38;5.38;;;;;;;;;;5000087;28;20026;-78
2022/08/17 13:21:05;;;;;;;;;;;;;;;;;;5007858;28;20037;-78
2022/08/17 13:23:34;;;;;;;5.78;4.90;;;;;;;;;;5016629;28;19998;-79
2022/08/17 13:26:13;;;;;;;4.90;4.25;;;;;;;;;;5016880;28;20025;-77
2022/08/17 13:28:41;;;;;;;13.50;7.47;;;;;;;;;;4995687;28;20039;-76
2022/08/17 13:31:26;;;;;;;7.97;5.93;;;;;;;;;;4998358;28;20041;-76
2022/08/17 13:34:10;;;;;;;7.78;4.93;;;;;;;;;;5017395;28;20377;-77
2022/08/17 13:36:36;;;;;;;9.00;4.40;;;;;;;;;;4997533;28;20042;-78
2022/08/17 13:39:11;;;;;;;8.70;6.82;;;;;;;;;;5000643;28;20037;-76
2022/08/17 13:41:39;;;;;;;8.75;6.93;;;;;;;;;;5016584;28;20449;-77
2022/08/17 13:44:42;;;;;;;11.45;7.53;;;;;;;;;;5015314;28;20032;-76
2022/08/17 13:47:20;;;;;;;11.07;6.28;;;;;;;;;;4995686;28;20365;-78
2022/08/17 13:49:47;;;;;;;8.98;6.72;;;;;;;;;;4978223;28;20045;-79
2022/08/17 13:52:39;;;;;;;9.13;6.85;;;;;;;;;;4995147;28;20042;-76
2022/08/17 13:55:18;;;;;;;7.65;4.78;;;;;;;;;;4972900;28;20072;-73
2022/08/17 13:57:48;;;;;;;6.28;4.72;;;;;;;;;;4998788;28;20586;-75
2022/08/17 14:00:28;;;;;;;8.40;6.38;;;;;;;;;;4973742;28;20117;-75
2022/08/17 14:02:57;;;;;;;10.02;6.70;;;;;;;;;;4979724;28;20137;-76
2022/08/17 14:05:24;;;;;;;12.23;6.45;;;;;;;;;;5004719;28;20042;-75
2022/08/17 14:07:54;;;;;;;11.27;5.53;;;;;;;;;;4999137;28;20030;-75
2022/08/17 14:10:21;;;;;;;8.80;7.10;;;;;;;;;;4989444;28;20074;-75
2022/08/17 14:12:48;;;;;;;9.02;5.90;;;;;;;;;;4995245;28;20031;-76
2022/08/17 14:15:16;;;;;;;11.07;6.15;;;;;;;;;;4995520;28;20034;-75
2022/08/17 14:17:44;;;;;;;8.00;6.20;;;;;;;;;;5003829;28;20046;-76
2022/08/17 14:20:11;;;;;;;9.02;5.63;;;;;;;;;;4997417;28;20022;-77
2022/08/17 14:22:39;;;;;;;10.23;7.28;;;;;;;;;;5008065;28;20449;-75
2022/08/17 14:25:06;;;;;;;7.88;5.40;;;;;;;;;;5020019;28;20125;-77
2022/08/17 14:27:32;;;;;;;11.20;7.18;;;;;;;;;;5016561;28;20048;-76
2022/08/17 14:30:01;;;;;;;13.75;6.85;;;;;;;;;;5009613;28;20022;-76
2022/08/17 14:32:32;;;;;;;12.25;7.82;;;;;;;;;;4980112;28;20406;-76
2022/08/17 14:34:58;;;;;;;7.95;5.10;;;;;;;;;;4996462;28;20093;-76
2022/08/17 14:37:26;;;;;;;10.95;7.68;;;;;;;;;;4995465;28;20060;-74
2022/08/17 14:39:59;;;;;;;11.65;8.48;;;;;;;;;;4996842;28;20027;-75
2022/08/17 14:42:27;;;;;;;10.25;7.65;;;;;;;;;;5000897;28;20037;-74
2022/08/17 14:44:54;;;;;;;12.07;8.07;;;;;;;;;;5012576;28;20025;-75
2022/08/17 14:47:19;;;;;;;11.65;8.57;;;;;;;;;;4998603;28;20448;-74
2022/08/17 14:49:47;;;;;;;14.65;8.90;;;;;;;;;;5010032;28;20030;-77
2022/08/17 14:52:14;;;;;;;11.75;7.53;;;;;;;;;;4999202;28;20029;-76
2022/08/17 14:54:40;;;;;;;9.98;6.90;;;;;;;;;;5002167;28;20021;-76
2022/08/17 14:57:08;;;;;;;12.00;7.95;;;;;;;;;;4996449;28;20090;-76
2022/08/17 14:59:35;;;;;;;13.38;7.93;;;;;;;;;;4998205;28;20085;-76
2022/08/17 15:02:02;;;;;;;9.45;6.93;;;;;;;;;;4999864;28;20110;-75
2022/08/17 15:04:30;;;;;;;8.00;6.25;;;;;;;;;;4995372;28;20046;-75
2022/08/17 15:06:56;;;;;;;9.32;6.35;;;;;;;;;;4995225;28;20456;-77
2022/08/17 15:09:22;;;;;;;13.50;7.05;;;;;;;;;;4995601;28;20034;-76
2022/08/17 15:11:50;;;;;;;11.40;6.47;;;;;;;;;;5002990;28;20029;-75
2022/08/17 15:14:20;;;;;;;10.10;7.40;;;;;;;;;;5015278;28;20354;-76
2022/08/17 15:16:48;;;;;;;7.93;5.72;;;;;;;;;;5014157;28;20214;-75
2022/08/17 15:19:13;;;;;;;9.43;7.10;;;;;;;;;;5008785;28;20032;-75
2022/08/17 15:21:40;;;;;;;10.63;6.88;;;;;;;;;;5015307;28;20025;-76
2022/08/17 15:24:06;;;;;;;10.35;6.97;;;;;;;;;;5014553;28;20025;-75
2022/08/17 15:26:31;;;;;;;11.32;8.23;;;;;;;;;;5014205;28;20110;-76
2022/08/17 15:28:59;;;;;;;11.23;8.15;;;;;;;;;;4998170;28;20109;-75
2022/08/17 15:31:25;;;;;;;9.70;7.07;;;;;;;;;;5008395;28;20334;-76
2022/08/17 15:33:51;;;;;;;13.85;8.60;;;;;;;;;;4995552;28;20110;-75
2022/08/17 15:36:17;;;;;;;9.13;6.68;;;;;;;;;;4998025;28;20105;-75
2022/08/17 15:38:42;;;;;;;10.40;7.70;;;;;;;;;;5013706;28;20018;-75
2022/08/17 15:41:14;;;;;;;10.50;7.50;;;;;;;;;;5011390;28;20057;-74
2022/08/17 15:43:41;;;;;;;10.27;7.05;;;;;;;;;;5011363;28;20472;-75
2022/08/17 15:46:11;;;;;;;7.07;5.78;;;;;;;;;;5013756;28;20091;-75
2022/08/17 15:48:43;;;;;;;10.45;7.72;;;;;;;;;;5013782;28;20030;-74